createdAt,value
2023-05-01T00:00:54.936Z,9.20
2023-05-01T00:03:22.101Z,9.00
2023-05-01T00:05:49.439Z,9.00
2023-05-01T00:08:16.493Z,8.90
2023-05-01T00:10:43.622Z,8.70
2023-05-01T00:13:10.801Z,9.00
2023-05-01T00:15:42.193Z,8.90
2023-05-01T00:18:09.372Z,8.90
2023-05-01T00:20:36.492Z,8.80
2023-05-01T00:23:03.578Z,8.90
2023-05-01T00:25:31.512Z,8.70
2023-05-01T00:27:59.875Z,8.70
2023-05-01T00:30:27.842Z,8.60
2023-05-01T00:32:55.210Z,8.60
2023-05-01T00:35:22.719Z,8.60
2023-05-01T00:37:49.785Z,8.70
2023-05-01T00:40:17.282Z,8.50
2023-05-01T00:42:44.305Z,8.50
2023-05-01T00:45:11.634Z,8.70
2023-05-01T00:47:39.268Z,8.70
2023-05-01T00:50:08.197Z,8.70
2023-05-01T00:52:36.286Z,8.60
2023-05-01T00:55:05.476Z,8.50
2023-05-01T00:57:33.316Z,8.50
2023-05-01T01:00:00.461Z,8.30
2023-05-01T01:02:28.013Z,8.40
2023-05-01T01:04:55.329Z,8.30
2023-05-01T01:07:37.152Z,8.30
2023-05-01T01:10:22.086Z,8.30
2023-05-01T01:13:20.350Z,8.30
2023-05-01T01:16:23.504Z,8.20
2023-05-01T01:19:06.935Z,8.10
2023-05-01T01:21:42.975Z,8.20
2023-05-01T01:25:07.342Z,8.20
2023-05-01T01:28:07.490Z,8.40
2023-05-01T01:31:14.768Z,8.10
2023-05-01T01:34:11.015Z,8.10
2023-05-01T01:37:03.906Z,8.10
2023-05-01T01:39:56.972Z,8.40
2023-05-01T01:42:41.979Z,8.00
2023-05-01T01:45:43.244Z,8.30
2023-05-01T01:48:23.600Z,8.20
2023-05-01T01:50:54.900Z,8.20
2023-05-01T01:53:25.946Z,8.10
2023-05-01T01:55:55.291Z,8.10
2023-05-01T01:58:26.276Z,8.10
2023-05-01T02:00:56.848Z,7.90
2023-05-01T02:03:26.241Z,8.00
2023-05-01T02:05:56.724Z,8.00
2023-05-01T02:08:29.322Z,7.80
2023-05-01T02:11:01.800Z,8.00
2023-05-01T02:13:31.630Z,8.00
2023-05-01T02:16:00.925Z,8.10
2023-05-01T02:18:30.169Z,8.10
2023-05-01T02:21:02.279Z,8.20
2023-05-01T02:23:31.940Z,8.20
2023-05-01T02:26:03.255Z,8.20
2023-05-01T02:28:30.964Z,8.20
2023-05-01T02:30:59.003Z,8.20
2023-05-01T02:33:26.239Z,8.20
2023-05-01T02:35:53.389Z,8.30
2023-05-01T02:38:20.750Z,8.50
2023-05-01T02:40:54.186Z,8.40
2023-05-01T02:43:23.523Z,8.40
2023-05-01T02:45:55.920Z,8.60
2023-05-01T02:48:27.669Z,8.30
2023-05-01T02:50:57.294Z,8.60
2023-05-01T02:53:24.413Z,8.20
2023-05-01T02:55:51.716Z,8.30
2023-05-01T02:58:19.883Z,8.30
2023-05-01T03:00:50.207Z,8.20
2023-05-01T03:03:18.016Z,8.30
2023-05-01T03:05:45.260Z,8.60
2023-05-01T03:08:12.918Z,8.50
2023-05-01T03:10:42.712Z,8.50
2023-05-01T03:13:11.340Z,8.60
2023-05-01T03:15:39.423Z,8.60
2023-05-01T03:18:07.789Z,8.20
2023-05-01T03:20:34.943Z,8.20
2023-05-01T03:23:02.061Z,8.20
2023-05-01T03:25:29.218Z,8.50
2023-05-01T03:27:56.358Z,8.10
2023-05-01T03:30:23.599Z,8.40
2023-05-01T03:32:52.043Z,8.00
2023-05-01T03:35:19.410Z,8.00
2023-05-01T03:37:46.655Z,8.00
2023-05-01T03:40:14.138Z,8.10
2023-05-01T03:42:41.306Z,8.10
2023-05-01T03:45:09.515Z,8.00
2023-05-01T03:47:36.880Z,8.40
2023-05-01T03:50:05.068Z,8.10
2023-05-01T03:52:32.173Z,8.20
2023-05-01T03:54:59.210Z,8.40
2023-05-01T03:57:27.625Z,8.10
2023-05-01T03:59:55.118Z,8.00
2023-05-01T04:02:22.724Z,8.40
2023-05-01T04:04:50.080Z,8.20
2023-05-01T04:07:17.272Z,8.00
2023-05-01T04:09:44.367Z,8.20
2023-05-01T04:12:11.599Z,8.10
2023-05-01T04:14:39.915Z,8.00
2023-05-01T04:17:07.052Z,8.20
2023-05-01T04:19:34.912Z,8.50
2023-05-01T04:22:02.448Z,8.50
2023-05-01T04:24:29.501Z,8.20
2023-05-01T04:26:56.593Z,8.70
2023-05-01T04:29:23.936Z,8.40
2023-05-01T04:31:51.050Z,8.70
2023-05-01T04:34:18.157Z,8.60
2023-05-01T04:36:45.234Z,8.50
2023-05-01T04:39:12.386Z,8.70
2023-05-01T04:41:39.572Z,8.80
2023-05-01T04:44:06.673Z,9.10
2023-05-01T04:46:33.813Z,9.80
2023-05-01T04:49:01.021Z,10.70
2023-05-01T04:51:29.092Z,11.00
2023-05-01T04:53:56.168Z,11.80
2023-05-01T04:56:23.583Z,12.60
2023-05-01T04:58:50.578Z,12.90
2023-05-01T05:01:17.833Z,12.80
2023-05-01T05:03:47.184Z,13.00
2023-05-01T05:06:16.101Z,13.40
2023-05-01T05:08:43.472Z,13.20
2023-05-01T05:11:11.073Z,13.30
2023-05-01T05:13:38.134Z,13.60
2023-05-01T05:16:06.256Z,14.00
2023-05-01T05:18:33.466Z,13.70
2023-05-01T05:21:05.408Z,14.40
2023-05-01T05:23:33.023Z,14.60
2023-05-01T05:26:01.881Z,15.80
2023-05-01T05:28:29.699Z,15.80
2023-05-01T05:30:58.080Z,15.70
2023-05-01T05:33:25.429Z,15.60
2023-05-01T05:35:55.647Z,16.90
2023-05-01T05:38:22.798Z,16.70
2023-05-01T05:40:49.887Z,17.10
2023-05-01T05:43:16.979Z,16.70
2023-05-01T05:45:44.016Z,14.80
2023-05-01T05:48:14.128Z,14.00
2023-05-01T05:50:41.362Z,13.30
2023-05-01T05:53:09.994Z,13.50
2023-05-01T05:55:37.218Z,13.20
2023-05-01T05:58:04.465Z,13.70
2023-05-01T06:00:32.101Z,14.80
2023-05-01T06:02:59.306Z,15.00
2023-05-01T06:05:26.880Z,14.10
2023-05-01T06:07:55.000Z,14.60
2023-05-01T06:10:22.290Z,15.40
2023-05-01T06:13:04.575Z,15.10
2023-05-01T06:15:40.787Z,14.60
2023-05-01T06:18:08.139Z,14.80
2023-05-01T06:20:35.570Z,16.10
2023-05-01T06:23:03.510Z,17.10
2023-05-01T06:25:31.167Z,17.80
2023-05-01T06:27:58.471Z,18.00
2023-05-01T06:30:25.701Z,17.80
2023-05-01T06:32:52.984Z,18.00
2023-05-01T06:35:21.079Z,18.90
2023-05-01T06:37:48.318Z,19.10
2023-05-01T06:40:15.585Z,18.80
2023-05-01T06:42:43.192Z,19.00
2023-05-01T06:45:10.478Z,19.20
2023-05-01T06:47:37.691Z,19.60
2023-05-01T06:50:05.894Z,19.70
2023-05-01T06:52:33.488Z,19.90
2023-05-01T06:55:04.217Z,19.90
2023-05-01T06:57:31.366Z,21.00
2023-05-01T06:59:58.880Z,20.80
2023-05-01T07:02:26.774Z,20.80
2023-05-01T07:04:54.256Z,20.30
2023-05-01T07:07:21.426Z,19.90
2023-05-01T07:09:48.427Z,19.10
2023-05-01T07:12:15.622Z,19.40
2023-05-01T07:14:42.984Z,19.90
2023-05-01T07:17:10.365Z,20.30
2023-05-01T07:19:38.025Z,20.70
2023-05-01T07:22:05.262Z,21.10
2023-05-01T07:24:32.339Z,20.90
2023-05-01T07:27:00.210Z,20.60
2023-05-01T07:29:27.610Z,20.60
2023-05-01T07:31:54.704Z,21.00
2023-05-01T07:34:22.012Z,20.90
2023-05-01T07:36:49.092Z,21.70
2023-05-01T07:39:17.895Z,21.00
2023-05-01T07:41:45.069Z,21.20
2023-05-01T07:44:12.348Z,22.10
2023-05-01T07:46:39.589Z,21.90
2023-05-01T07:49:06.790Z,23.00
2023-05-01T07:51:34.382Z,22.90
2023-05-01T07:54:04.675Z,22.90
2023-05-01T07:56:32.216Z,23.20
2023-05-01T07:58:59.344Z,22.90
2023-05-01T08:01:26.537Z,24.20
2023-05-01T08:03:53.912Z,23.80
2023-05-01T08:06:21.210Z,23.80
2023-05-01T08:08:48.490Z,24.10
2023-05-01T08:11:16.792Z,24.10
2023-05-01T08:13:44.030Z,24.10
2023-05-01T08:16:11.452Z,24.00
2023-05-01T08:18:38.828Z,23.60
2023-05-01T08:21:08.079Z,23.60
2023-05-01T08:23:35.200Z,24.10
2023-05-01T08:26:02.643Z,24.00
2023-05-01T08:28:30.410Z,23.40
2023-05-01T08:30:58.926Z,24.10
2023-05-01T08:33:26.204Z,24.80
2023-05-01T08:35:53.660Z,25.00
2023-05-01T08:38:20.857Z,25.10
2023-05-01T08:40:58.993Z,25.60
2023-05-01T08:43:28.138Z,25.80
2023-05-01T08:45:59.141Z,25.50
2023-05-01T08:48:28.354Z,25.90
2023-05-01T08:51:06.452Z,26.30
2023-05-01T08:53:43.147Z,26.30
2023-05-01T08:56:13.813Z,26.00
2023-05-01T08:58:45.466Z,26.10
2023-05-01T09:01:16.334Z,26.30
2023-05-01T09:03:46.742Z,26.60
2023-05-01T09:06:16.801Z,26.70
2023-05-01T09:08:44.086Z,26.50
2023-05-01T09:11:12.443Z,26.50
2023-05-01T09:13:39.924Z,26.50
2023-05-01T09:16:11.019Z,26.30
2023-05-01T09:18:41.136Z,26.30
2023-05-01T09:21:08.348Z,26.50
2023-05-01T09:23:37.765Z,26.90
2023-05-01T09:26:08.304Z,27.00
2023-05-01T09:28:49.454Z,26.60
2023-05-01T09:31:29.111Z,26.90
2023-05-01T09:34:04.706Z,26.90
2023-05-01T09:36:35.622Z,26.70
2023-05-01T09:39:04.002Z,26.90
2023-05-01T09:41:34.002Z,26.80
2023-05-01T09:44:01.791Z,26.80
2023-05-01T09:46:29.399Z,26.80
2023-05-01T09:49:05.391Z,26.10
2023-05-01T09:51:35.073Z,26.20
2023-05-01T09:54:05.270Z,26.30
2023-05-01T09:56:49.619Z,26.50
2023-05-01T09:59:20.389Z,26.70
2023-05-01T10:01:50.440Z,25.70
2023-05-01T10:04:29.600Z,26.00
2023-05-01T10:06:57.170Z,26.00
2023-05-01T10:09:29.559Z,26.20
2023-05-01T10:11:57.922Z,26.40
2023-05-01T10:14:27.093Z,26.20
2023-05-01T10:16:54.729Z,25.30
2023-05-01T10:19:22.248Z,25.10
2023-05-01T10:21:49.711Z,25.60
2023-05-01T10:24:17.473Z,25.50
2023-05-01T10:26:50.016Z,26.20
2023-05-01T10:29:20.840Z,26.30
2023-05-01T10:31:48.106Z,26.00
2023-05-01T10:34:21.732Z,26.40
2023-05-01T10:37:01.113Z,26.60
2023-05-01T10:39:34.067Z,26.50
2023-05-01T10:42:14.157Z,26.30
2023-05-01T10:44:48.070Z,26.60
2023-05-01T10:47:27.905Z,27.00
2023-05-01T10:50:12.585Z,26.90
2023-05-01T10:53:14.761Z,27.10
2023-05-01T10:55:49.067Z,26.80
2023-05-01T10:58:41.019Z,26.70
2023-05-01T11:01:31.396Z,27.00
2023-05-01T11:04:18.824Z,26.80
2023-05-01T11:07:11.327Z,26.50
2023-05-01T11:09:42.824Z,26.80
2023-05-01T11:12:15.920Z,26.30
2023-05-01T11:15:01.538Z,26.40
2023-05-01T11:17:43.694Z,26.50
2023-05-01T11:20:24.772Z,26.60
2023-05-01T11:22:54.601Z,26.40
2023-05-01T11:25:24.181Z,26.50
2023-05-01T11:28:06.752Z,26.40
2023-05-01T11:30:38.289Z,26.50
2023-05-01T11:33:10.588Z,26.50
2023-05-01T11:35:38.958Z,26.10
2023-05-01T11:38:18.857Z,26.60
2023-05-01T11:40:55.543Z,26.60
2023-05-01T11:43:23.549Z,26.30
2023-05-01T11:46:02.390Z,26.30
2023-05-01T11:48:30.886Z,25.80
2023-05-01T11:50:58.216Z,25.90
2023-05-01T11:53:25.754Z,26.20
2023-05-01T11:55:52.933Z,25.90
2023-05-01T11:58:33.040Z,25.90
2023-05-01T12:01:00.245Z,25.80
2023-05-01T12:03:27.598Z,25.80
2023-05-01T12:05:54.669Z,26.00
2023-05-01T12:08:23.643Z,26.10
2023-05-01T12:10:56.426Z,25.90
2023-05-01T12:13:24.866Z,26.10
2023-05-01T12:15:54.905Z,26.10
2023-05-01T12:18:23.050Z,26.20
2023-05-01T12:20:56.577Z,26.10
2023-05-01T12:23:40.028Z,25.30
2023-05-01T12:26:24.101Z,25.40
2023-05-01T12:29:05.696Z,25.70
2023-05-01T12:31:33.760Z,25.70
2023-05-01T12:34:06.221Z,25.50
2023-05-01T12:36:36.330Z,25.50
2023-05-01T12:39:17.477Z,25.60
2023-05-01T12:41:49.543Z,25.60
2023-05-01T12:44:26.129Z,25.60
2023-05-01T12:47:13.232Z,25.80
2023-05-01T12:49:43.541Z,25.80
2023-05-01T12:52:11.174Z,25.90
2023-05-01T12:54:44.093Z,25.60
2023-05-01T12:57:18.248Z,25.70
2023-05-01T12:59:54.456Z,25.50
2023-05-01T13:02:32.207Z,24.80
2023-05-01T13:05:11.668Z,24.90
2023-05-01T13:07:40.357Z,24.80
2023-05-01T13:10:08.142Z,24.80
2023-05-01T13:12:45.097Z,24.60
2023-05-01T13:15:22.248Z,24.50
2023-05-01T13:17:49.766Z,24.00
2023-05-01T13:20:29.485Z,24.20
2023-05-01T13:22:56.696Z,24.30
2023-05-01T13:25:24.981Z,23.70
2023-05-01T13:27:54.009Z,24.20
2023-05-01T13:30:32.225Z,23.90
2023-05-01T13:32:59.473Z,24.10
2023-05-01T13:35:27.507Z,23.90
2023-05-01T13:37:55.042Z,23.70
2023-05-01T13:40:26.212Z,23.50
2023-05-01T13:42:54.174Z,23.50
2023-05-01T13:45:21.662Z,23.40
2023-05-01T13:47:52.076Z,23.40
2023-05-01T13:50:19.765Z,23.40
2023-05-01T13:52:47.792Z,23.10
2023-05-01T13:55:17.631Z,23.40
2023-05-01T13:57:44.845Z,23.10
2023-05-01T14:00:19.938Z,23.30
2023-05-01T14:02:49.268Z,23.10
2023-05-01T14:05:21.182Z,22.90
2023-05-01T14:07:57.013Z,23.10
2023-05-01T14:10:28.244Z,23.10
2023-05-01T14:12:59.127Z,23.00
2023-05-01T14:15:27.306Z,22.90
2023-05-01T14:17:56.895Z,22.80
2023-05-01T14:20:26.060Z,22.80
2023-05-01T14:22:53.655Z,22.70
2023-05-01T14:25:31.333Z,22.60
2023-05-01T14:28:01.213Z,22.50
2023-05-01T14:30:34.582Z,22.50
2023-05-01T14:33:08.243Z,22.50
2023-05-01T14:35:39.005Z,22.50
2023-05-01T14:38:13.282Z,22.50
2023-05-01T14:40:44.626Z,22.60
2023-05-01T14:43:17.692Z,22.60
2023-05-01T14:45:46.673Z,22.50
2023-05-01T14:48:25.958Z,22.50
2023-05-01T14:50:57.998Z,22.40
2023-05-01T14:53:27.337Z,22.30
2023-05-01T14:55:57.930Z,22.60
2023-05-01T14:58:25.369Z,22.30
2023-05-01T15:00:55.372Z,22.30
2023-05-01T15:03:27.476Z,22.20
2023-05-01T15:06:04.268Z,22.20
2023-05-01T15:08:32.564Z,22.30
2023-05-01T15:11:00.008Z,22.20
2023-05-01T15:13:27.827Z,22.20
2023-05-01T15:15:55.722Z,22.10
2023-05-01T15:18:23.696Z,22.40
2023-05-01T15:20:51.347Z,22.10
2023-05-01T15:23:18.479Z,22.20
2023-05-01T15:25:49.473Z,22.10
2023-05-01T15:28:16.927Z,22.00
2023-05-01T15:30:47.712Z,21.90
2023-05-01T15:33:18.025Z,22.10
2023-05-01T15:35:47.373Z,22.10
2023-05-01T15:38:14.456Z,22.00
2023-05-01T15:40:43.954Z,22.00
2023-05-01T15:43:11.094Z,22.00
2023-05-01T15:45:43.761Z,21.90
2023-05-01T15:48:12.236Z,22.10
2023-05-01T15:50:42.101Z,21.80
2023-05-01T15:53:09.542Z,21.90
2023-05-01T15:55:36.956Z,21.90
2023-05-01T15:58:04.246Z,21.80
2023-05-01T16:00:32.873Z,21.40
2023-05-01T16:03:03.160Z,21.50
2023-05-01T16:05:30.475Z,21.40
2023-05-01T16:08:01.031Z,21.40
2023-05-01T16:10:28.349Z,21.30
2023-05-01T16:12:55.564Z,21.20
2023-05-01T16:15:23.104Z,21.00
2023-05-01T16:17:55.143Z,21.10
2023-05-01T16:20:27.623Z,20.90
2023-05-01T16:22:54.765Z,20.90
2023-05-01T16:25:22.022Z,20.90
2023-05-01T16:27:49.117Z,20.80
2023-05-01T16:30:16.983Z,20.70
2023-05-01T16:32:45.177Z,20.60
2023-05-01T16:35:20.892Z,20.60
2023-05-01T16:37:47.973Z,20.60
2023-05-01T16:40:18.858Z,20.60
2023-05-01T16:43:02.883Z,20.50
2023-05-01T16:45:32.630Z,20.40
2023-05-01T16:48:00.048Z,20.40
2023-05-01T16:50:27.884Z,20.30
2023-05-01T16:52:56.099Z,20.20
2023-05-01T16:55:24.925Z,20.20
2023-05-01T16:57:52.843Z,20.20
2023-05-01T17:00:20.453Z,20.10
2023-05-01T17:02:52.410Z,20.00
2023-05-01T17:05:19.546Z,19.80
2023-05-01T17:07:46.798Z,19.80
2023-05-01T17:10:14.001Z,19.50
2023-05-01T17:12:41.418Z,19.60
2023-05-01T17:15:09.924Z,19.40
2023-05-01T17:17:37.045Z,19.50
2023-05-01T17:20:05.631Z,19.20
2023-05-01T17:22:33.083Z,19.10
2023-05-01T17:25:02.467Z,19.10
2023-05-01T17:27:33.514Z,18.90
2023-05-01T17:30:00.911Z,18.90
2023-05-01T17:32:36.268Z,19.00
2023-05-01T17:35:05.919Z,18.90
2023-05-01T17:37:33.263Z,18.80
2023-05-01T17:40:00.570Z,18.80
2023-05-01T17:42:27.849Z,18.80
2023-05-01T17:44:56.139Z,18.60
2023-05-01T17:47:25.796Z,18.60
2023-05-01T17:49:53.471Z,18.50
2023-05-01T17:52:20.508Z,18.50
2023-05-01T17:54:47.589Z,18.30
2023-05-01T17:57:14.611Z,18.10
2023-05-01T17:59:41.821Z,18.10
2023-05-01T18:02:09.164Z,18.00
2023-05-01T18:04:38.039Z,17.90
2023-05-01T18:07:05.398Z,17.80
2023-05-01T18:09:32.438Z,18.10
2023-05-01T18:12:01.906Z,17.70
2023-05-01T18:14:30.305Z,17.50
2023-05-01T18:16:57.584Z,17.50
2023-05-01T18:19:24.752Z,17.30
2023-05-01T18:21:51.975Z,17.30
2023-05-01T18:24:19.142Z,17.10
2023-05-01T18:26:48.200Z,17.00
2023-05-01T18:29:15.472Z,16.70
2023-05-01T18:31:42.575Z,16.80
2023-05-01T18:34:12.008Z,17.10
2023-05-01T18:36:39.146Z,16.60
2023-05-01T18:39:06.228Z,16.90
2023-05-01T18:41:33.468Z,17.10
2023-05-01T18:44:02.589Z,16.80
2023-05-01T18:46:30.096Z,17.00
2023-05-01T18:48:57.372Z,16.90
2023-05-01T18:51:24.544Z,16.90
2023-05-01T18:53:51.648Z,16.90
2023-05-01T18:56:19.168Z,16.80
2023-05-01T18:58:48.156Z,16.80
2023-05-01T19:01:15.319Z,16.70
2023-05-01T19:03:42.761Z,16.60
2023-05-01T19:06:13.092Z,16.70
2023-05-01T19:08:40.870Z,16.60
2023-05-01T19:11:08.044Z,16.60
2023-05-01T19:13:35.266Z,16.50
2023-05-01T19:16:02.384Z,16.50
2023-05-01T19:18:29.766Z,16.40
2023-05-01T19:20:56.831Z,16.30
2023-05-01T19:23:23.963Z,16.30
2023-05-01T19:25:51.146Z,16.10
2023-05-01T19:28:18.434Z,16.30
2023-05-01T19:30:45.617Z,15.90
2023-05-01T19:33:12.817Z,16.10
2023-05-01T19:35:39.927Z,16.10
2023-05-01T19:38:07.000Z,16.00
2023-05-01T19:40:34.137Z,15.90
2023-05-01T19:43:01.349Z,15.90
2023-05-01T19:45:28.678Z,15.80
2023-05-01T19:47:55.904Z,15.60
2023-05-01T19:50:26.403Z,15.30
2023-05-01T19:52:53.510Z,15.60
2023-05-01T19:55:20.711Z,15.40
2023-05-01T19:57:48.065Z,15.40
2023-05-01T20:00:15.418Z,15.30
2023-05-01T20:02:42.566Z,15.10
2023-05-01T20:05:11.027Z,14.80
2023-05-01T20:07:38.065Z,15.10
2023-05-01T20:10:06.991Z,14.90
2023-05-01T20:12:34.131Z,14.90
2023-05-01T20:15:01.661Z,14.80
2023-05-01T20:17:29.047Z,14.70
2023-05-01T20:19:56.413Z,14.40
2023-05-01T20:22:25.933Z,14.60
2023-05-01T20:24:52.972Z,14.50
2023-05-01T20:27:20.147Z,14.60
2023-05-01T20:29:47.406Z,14.60
2023-05-01T20:32:14.535Z,14.70
2023-05-01T20:34:41.762Z,14.70
2023-05-01T20:37:09.072Z,14.60
2023-05-01T20:39:36.258Z,14.70
2023-05-01T20:42:05.219Z,14.20
2023-05-01T20:44:32.713Z,14.40
2023-05-01T20:46:59.943Z,14.10
2023-05-01T20:49:28.487Z,14.30
2023-05-01T20:51:57.098Z,14.20
2023-05-01T20:54:24.252Z,14.30
2023-05-01T20:56:51.421Z,13.80
2023-05-01T20:59:18.608Z,13.70
2023-05-01T21:01:45.869Z,13.80
2023-05-01T21:04:13.758Z,14.20
2023-05-01T21:06:41.143Z,13.90
2023-05-01T21:09:11.161Z,14.10
2023-05-01T21:11:40.821Z,13.60
2023-05-01T21:14:08.861Z,13.60
2023-05-01T21:16:38.990Z,13.60
2023-05-01T21:19:07.031Z,13.50
2023-05-01T21:21:40.132Z,13.50
2023-05-01T21:24:09.320Z,13.80
2023-05-01T21:26:36.608Z,13.50
2023-05-01T21:29:03.775Z,13.40
2023-05-01T21:31:36.811Z,13.50
2023-05-01T21:34:07.365Z,13.40
2023-05-01T21:36:42.709Z,13.30
2023-05-01T21:39:10.206Z,13.50
2023-05-01T21:41:38.938Z,13.30
2023-05-01T21:44:07.398Z,13.10
2023-05-01T21:46:37.237Z,13.30
2023-05-01T21:49:04.953Z,13.30
2023-05-01T21:51:33.572Z,13.30
2023-05-01T21:54:01.991Z,13.20
2023-05-01T21:56:29.169Z,13.30
2023-05-01T21:59:02.434Z,13.10
2023-05-01T22:01:29.838Z,13.20
2023-05-01T22:03:57.201Z,12.90
2023-05-01T22:06:24.639Z,12.90
2023-05-01T22:08:52.453Z,13.10
2023-05-01T22:11:20.277Z,12.50
2023-05-01T22:13:47.336Z,12.50
2023-05-01T22:16:14.768Z,12.50
2023-05-01T22:18:41.865Z,12.40
2023-05-01T22:21:08.927Z,12.20
2023-05-01T22:23:35.934Z,12.40
2023-05-01T22:26:03.025Z,12.40
2023-05-01T22:28:30.092Z,12.50
2023-05-01T22:31:03.355Z,12.50
2023-05-01T22:33:30.476Z,12.40
2023-05-01T22:35:57.558Z,12.30
2023-05-01T22:38:24.676Z,12.30
2023-05-01T22:40:51.861Z,12.30
2023-05-01T22:43:19.218Z,12.60
2023-05-01T22:45:46.497Z,12.30
2023-05-01T22:48:13.588Z,12.20
2023-05-01T22:50:42.804Z,12.10
2023-05-01T22:53:10.170Z,12.20
2023-05-01T22:55:38.146Z,12.20
2023-05-01T22:58:05.217Z,12.40
2023-05-01T23:00:32.478Z,12.20
2023-05-01T23:03:00.507Z,11.90
2023-05-01T23:05:27.710Z,12.30
2023-05-01T23:07:54.925Z,11.80
2023-05-01T23:10:26.914Z,12.00
2023-05-01T23:12:54.146Z,12.30
2023-05-01T23:15:26.108Z,12.30
2023-05-01T23:17:53.276Z,12.40
2023-05-01T23:20:24.600Z,12.40
2023-05-01T23:22:52.147Z,12.40
2023-05-01T23:25:26.230Z,12.30
2023-05-01T23:27:55.565Z,12.00
2023-05-01T23:30:23.180Z,12.00
2023-05-01T23:32:50.332Z,11.90
2023-05-01T23:35:25.081Z,11.90
2023-05-01T23:37:53.849Z,11.80
2023-05-01T23:40:21.374Z,11.90
2023-05-01T23:42:49.812Z,11.70
2023-05-01T23:45:17.177Z,11.70
2023-05-01T23:47:44.542Z,11.70
2023-05-01T23:50:11.910Z,11.70
2023-05-01T23:52:39.233Z,11.80
2023-05-01T23:55:06.678Z,11.70
2023-05-01T23:57:33.760Z,11.70
